Time;durP1;ratioP1;P1;durP2;ratioP2;P2;SDS_P1;SDS_P2;PMS_P1;PMS_P2;Temp;Humidity;BMP_temperature;BMP_pressure;BME280_temperature;BME280_humidity;BME280_pressure;Samples;Min_cycle;Max_cycle;Signal;HPM_P1;HPM_P2
2023/08/21 00:01:40;;;;;;;8.55;3.05;;;19.70;99.90;;;;;;5001399;28;20410;-56
2023/08/21 00:04:06;;;;;;;12.57;3.08;;;19.70;99.90;;;;;;5006640;28;20038;-54
2023/08/21 00:06:32;;;;;;;7.13;2.72;;;19.70;99.90;;;;;;5008418;28;20314;-55
2023/08/21 00:08:57;;;;;;;10.05;2.85;;;19.80;99.90;;;;;;5005728;28;20087;-56
2023/08/21 00:11:23;;;;;;;10.32;2.70;;;19.70;99.90;;;;;;5009561;28;20132;-56
2023/08/21 00:13:49;;;;;;;9.57;3.15;;;19.80;99.90;;;;;;5012671;28;20034;-56
2023/08/21 00:16:16;;;;;;;5.53;2.47;;;19.80;99.90;;;;;;5006579;28;20092;-55
2023/08/21 00:18:42;;;;;;;10.63;3.35;;;19.80;99.90;;;;;;5007698;28;20034;-53
2023/08/21 00:21:07;;;;;;;12.15;3.10;;;19.70;99.90;;;;;;5006573;28;20363;-54
2023/08/21 00:23:33;;;;;;;13.07;3.40;;;19.70;99.90;;;;;;5009612;28;20045;-56
2023/08/21 00:25:59;;;;;;;12.10;2.85;;;19.60;99.90;;;;;;5007386;28;20493;-56
2023/08/21 00:28:24;;;;;;;11.85;3.10;;;19.60;99.90;;;;;;5007106;28;20596;-55
2023/08/21 00:30:50;;;;;;;9.95;3.40;;;19.50;99.90;;;;;;5004944;28;20510;-56
2023/08/21 00:33:16;;;;;;;14.70;3.10;;;19.40;99.90;;;;;;5005906;28;20034;-56
2023/08/21 00:35:42;;;;;;;10.57;3.22;;;19.40;99.90;;;;;;5011346;28;20080;-55
2023/08/21 00:38:08;;;;;;;11.75;3.35;;;19.60;99.90;;;;;;5024636;28;20462;-57
2023/08/21 00:40:35;;;;;;;16.92;3.78;;;19.50;99.90;;;;;;5002037;28;20145;-55
2023/08/21 00:43:00;;;;;;;14.65;3.50;;;19.70;99.90;;;;;;5017758;28;20109;-57
2023/08/21 00:45:26;;;;;;;11.68;3.40;;;19.60;99.90;;;;;;5025220;28;20033;-56
2023/08/21 00:47:52;;;;;;;10.60;3.55;;;19.50;99.90;;;;;;5011929;28;20057;-56
2023/08/21 00:50:17;;;;;;;15.63;3.60;;;19.40;99.90;;;;;;5006657;28;20069;-55
2023/08/21 00:52:45;;;;;;;12.13;3.35;;;19.50;99.90;;;;;;5009719;28;20069;-56
2023/08/21 00:55:13;;;;;;;13.00;3.55;;;19.30;99.90;;;;;;5005540;28;20092;-56
2023/08/21 00:57:39;;;;;;;10.27;3.70;;;19.00;99.90;;;;;;5019986;28;20057;-55
2023/08/21 01:00:05;;;;;;;11.25;3.47;;;19.60;99.90;;;;;;5001834;28;20039;-56
2023/08/21 01:02:31;;;;;;;7.68;3.13;;;18.50;99.90;;;;;;4995564;28;20125;-57
2023/08/21 01:04:56;;;;;;;11.18;3.80;;;19.60;99.90;;;;;;5010235;28;20124;-55
2023/08/21 01:07:22;;;;;;;16.48;3.55;;;19.50;99.90;;;;;;5004873;28;20121;-57
2023/08/21 01:09:53;;;;;;;12.23;3.17;;;19.50;99.90;;;;;;5006359;28;20057;-56
2023/08/21 01:12:48;;;;;;;9.90;3.38;;;19.20;99.90;;;;;;5006058;28;20520;-59
2023/08/21 01:15:14;;;;;;;11.95;3.15;;;19.10;99.90;;;;;;5003493;28;20022;-56
2023/08/21 01:17:42;;;;;;;8.18;3.35;;;19.10;99.90;;;;;;4999857;28;20103;-57
2023/08/21 01:20:11;;;;;;;9.57;2.90;;;19.10;99.90;;;;;;5006177;28;20480;-56
2023/08/21 01:22:38;;;;;;;13.55;3.50;;;19.00;99.90;;;;;;5006319;28;20046;-57
2023/08/21 01:25:05;;;;;;;8.85;2.88;;;19.10;99.90;;;;;;5005446;28;20129;-57
2023/08/21 01:27:32;;;;;;;10.35;3.45;;;19.10;99.90;;;;;;5005592;28;20551;-55
2023/08/21 01:29:58;;;;;;;7.68;2.75;;;19.00;99.90;;;;;;5008379;28;20042;-56
2023/08/21 01:32:29;;;;;;;7.88;2.75;;;19.00;99.90;;;;;;5001526;28;20050;-55
2023/08/21 01:34:56;;;;;;;11.38;3.30;;;18.80;99.90;;;;;;5006427;28;20184;-56
2023/08/21 01:37:24;;;;;;;7.72;2.88;;;18.50;99.90;;;;;;5007456;28;20040;-55
2023/08/21 01:39:49;;;;;;;7.93;2.90;;;18.60;99.90;;;;;;5025463;28;20576;-56
2023/08/21 01:42:15;;;;;;;5.97;2.60;;;18.10;99.90;;;;;;5010465;28;20152;-56
2023/08/21 01:44:40;;;;;;;8.68;2.63;;;18.40;99.90;;;;;;5015790;28;20026;-56
2023/08/21 01:47:06;;;;;;;10.25;3.20;;;18.60;99.90;;;;;;5011294;28;20034;-56
2023/08/21 01:49:32;;;;;;;7.80;2.70;;;18.40;99.90;;;;;;4998810;28;20038;-56
2023/08/21 01:51:57;;;;;;;8.82;2.70;;;18.80;99.90;;;;;;5000570;28;20030;-55
2023/08/21 01:54:23;;;;;;;8.02;2.33;;;18.10;99.90;;;;;;5002899;28;20436;-56
2023/08/21 01:56:49;;;;;;;10.00;2.80;;;18.30;99.90;;;;;;5025536;28;20041;-55
2023/08/21 01:59:16;;;;;;;9.05;2.90;;;18.30;99.90;;;;;;5024852;28;20124;-55
2023/08/21 02:01:42;;;;;;;8.77;2.83;;;18.20;99.90;;;;;;5017124;28;20120;-54
2023/08/21 02:04:08;;;;;;;6.72;2.83;;;18.20;99.90;;;;;;5010225;28;20121;-56
2023/08/21 02:06:33;;;;;;;8.82;2.70;;;18.00;99.90;;;;;;5012094;28;20061;-55
2023/08/21 02:08:59;;;;;;;12.30;3.10;;;18.00;99.90;;;;;;5002594;28;20046;-56
2023/08/21 02:11:24;;;;;;;8.88;2.88;;;18.20;99.90;;;;;;5004585;28;20029;-56
2023/08/21 02:13:50;;;;;;;8.52;2.75;;;18.10;99.90;;;;;;5005411;28;20449;-56
2023/08/21 02:16:15;;;;;;;7.63;2.70;;;18.10;99.90;;;;;;5004455;28;20040;-56
2023/08/21 02:18:41;;;;;;;9.45;3.13;;;17.90;99.90;;;;;;5002455;28;20030;-54
2023/08/21 02:21:06;;;;;;;9.18;2.72;;;18.00;99.90;;;;;;5001852;28;20075;-56
2023/08/21 02:23:32;;;;;;;8.43;2.40;;;18.00;99.90;;;;;;5005315;28;20513;-56
2023/08/21 02:25:58;;;;;;;6.63;2.50;;;18.00;99.90;;;;;;5024898;28;20041;-56
2023/08/21 02:28:24;;;;;;;8.32;2.90;;;18.00;99.90;;;;;;5004751;28;20025;-56
2023/08/21 02:30:49;;;;;;;6.38;2.60;;;18.00;99.90;;;;;;5011875;28;20379;-55
2023/08/21 02:33:15;;;;;;;9.75;3.08;;;18.00;99.90;;;;;;4999833;28;20402;-57
2023/08/21 02:35:40;;;;;;;11.05;2.95;;;18.10;99.90;;;;;;5008752;28;20061;-56
2023/08/21 02:38:06;;;;;;;6.70;2.60;;;18.00;99.90;;;;;;5006112;28;20042;-56
2023/08/21 02:40:32;;;;;;;5.85;3.00;;;17.90;99.90;;;;;;5003003;28;20440;-56
2023/08/21 02:42:57;;;;;;;7.50;2.85;;;17.80;99.90;;;;;;5008986;28;20065;-55
2023/08/21 02:45:23;;;;;;;10.15;2.95;;;17.80;99.90;;;;;;5012628;28;20133;-55
2023/08/21 02:47:49;;;;;;;7.28;3.00;;;17.90;99.90;;;;;;5011614;28;20034;-55
2023/08/21 02:50:14;;;;;;;7.03;2.97;;;17.70;99.90;;;;;;5017038;28;20133;-56
2023/08/21 02:52:40;;;;;;;7.65;3.00;;;17.70;99.90;;;;;;5019371;28;20072;-55
2023/08/21 02:55:06;;;;;;;7.43;2.65;;;17.70;99.90;;;;;;5000469;28;20036;-56
2023/08/21 02:57:31;;;;;;;9.30;2.85;;;17.80;99.90;;;;;;5017806;28;20101;-56
2023/08/21 02:59:57;;;;;;;8.27;3.00;;;17.90;99.90;;;;;;5024843;28;20060;-55
2023/08/21 03:02:23;;;;;;;6.07;2.70;;;17.90;99.90;;;;;;5000634;28;20049;-55
2023/08/21 03:04:49;;;;;;;7.40;2.78;;;17.80;99.90;;;;;;5010166;28;20030;-55
2023/08/21 03:07:15;;;;;;;6.60;2.70;;;17.60;99.90;;;;;;5024278;28;20052;-55
2023/08/21 03:09:41;;;;;;;9.15;3.17;;;17.50;99.90;;;;;;5010446;28;20034;-55
2023/08/21 03:12:08;;;;;;;9.25;2.78;;;17.50;99.90;;;;;;5019832;28;20699;-56
2023/08/21 03:14:34;;;;;;;8.98;3.13;;;17.60;99.90;;;;;;5019756;28;20041;-56
2023/08/21 03:16:59;;;;;;;8.13;2.80;;;17.80;99.90;;;;;;4994424;28;20078;-55
2023/08/21 03:19:25;;;;;;;9.20;3.10;;;17.70;99.90;;;;;;5019890;28;20029;-56
2023/08/21 03:21:51;;;;;;;9.77;3.55;;;17.60;99.90;;;;;;5028101;28;20441;-56
2023/08/21 03:24:17;;;;;;;11.27;3.13;;;17.60;99.90;;;;;;5009497;28;20069;-55
2023/08/21 03:26:43;;;;;;;8.75;3.40;;;17.60;99.90;;;;;;5022246;28;20068;-54
2023/08/21 03:29:09;;;;;;;6.00;2.92;;;17.70;99.90;;;;;;5018758;28;20030;-56
2023/08/21 03:31:34;;;;;;;7.88;2.90;;;17.60;99.90;;;;;;5011203;28;20045;-56
2023/08/21 03:34:00;;;;;;;9.35;3.15;;;17.40;99.90;;;;;;5001148;28;20034;-56
2023/08/21 03:36:31;;;;;;;7.90;2.70;;;17.30;99.90;;;;;;5010434;28;20022;-55
2023/08/21 03:39:00;;;;;;;9.73;2.67;;;17.30;99.90;;;;;;5006618;28;20065;-56
2023/08/21 03:41:26;;;;;;;10.02;2.83;;;17.30;99.90;;;;;;5021325;28;20060;-56
2023/08/21 03:43:52;;;;;;;9.07;2.83;;;17.40;99.90;;;;;;5032607;28;20034;-56
2023/08/21 03:46:18;;;;;;;8.52;2.95;;;17.40;99.90;;;;;;5007293;28;20041;-55
2023/08/21 03:48:43;;;;;;;9.73;3.13;;;17.40;99.90;;;;;;5009784;28;20440;-55
2023/08/21 03:51:09;;;;;;;8.55;2.95;;;17.40;99.90;;;;;;5016284;28;20026;-56
2023/08/21 03:53:34;;;;;;;10.27;2.90;;;17.30;99.90;;;;;;5028177;28;20144;-56
2023/08/21 03:56:00;;;;;;;7.15;3.10;;;17.40;99.90;;;;;;5018530;28;20041;-56
2023/08/21 03:58:26;;;;;;;11.82;3.20;;;17.40;99.90;;;;;;5020830;28;20052;-56
2023/08/21 04:00:53;;;;;;;8.27;3.00;;;17.30;99.90;;;;;;5018298;28;20025;-56
2023/08/21 04:03:19;;;;;;;7.75;3.10;;;17.30;99.90;;;;;;5016571;28;20501;-56
2023/08/21 04:05:44;;;;;;;7.45;2.65;;;17.30;99.90;;;;;;5021815;28;20029;-56
2023/08/21 04:08:10;;;;;;;10.30;3.08;;;17.40;99.90;;;;;;5025405;28;20103;-55
2023/08/21 04:10:36;;;;;;;9.52;3.03;;;17.40;99.90;;;;;;4999688;28;20056;-56
2023/08/21 04:13:01;;;;;;;7.63;2.50;;;17.30;99.90;;;;;;5006492;28;20061;-54
2023/08/21 04:15:27;;;;;;;7.72;3.28;;;17.20;99.90;;;;;;5004335;28;20046;-56
2023/08/21 04:17:53;;;;;;;10.93;3.20;;;17.30;99.90;;;;;;4991690;28;20049;-57
2023/08/21 04:20:23;;;;;;;9.68;3.20;;;17.40;99.90;;;;;;5007692;28;20034;-56
2023/08/21 04:22:49;;;;;;;6.80;3.05;;;17.30;99.90;;;;;;5005863;28;20121;-56
2023/08/21 04:25:15;;;;;;;6.57;2.75;;;17.20;99.90;;;;;;5011772;28;20435;-55
2023/08/21 04:27:41;;;;;;;10.63;3.13;;;17.30;99.90;;;;;;5003794;28;20026;-55
2023/08/21 04:30:08;;;;;;;8.48;3.42;;;17.40;99.90;;;;;;5006785;28;20398;-56
2023/08/21 04:32:34;;;;;;;9.60;3.38;;;17.40;99.90;;;;;;5005985;28;20050;-56
2023/08/21 04:34:59;;;;;;;7.65;3.42;;;17.60;99.90;;;;;;5013482;28;20112;-55
2023/08/21 04:37:25;;;;;;;10.40;3.05;;;17.60;99.90;;;;;;4994463;28;20035;-56
2023/08/21 04:39:51;;;;;;;9.05;3.15;;;17.60;99.90;;;;;;5005086;28;20056;-56
2023/08/21 04:42:17;;;;;;;8.98;3.53;;;17.70;99.90;;;;;;5027025;28;20481;-57
2023/08/21 04:44:43;;;;;;;8.50;3.33;;;17.70;99.90;;;;;;5021128;28;20038;-57
2023/08/21 04:47:27;;;;;;;11.48;3.30;;;17.70;99.90;;;;;;5016840;28;20033;-57
2023/08/21 04:49:53;;;;;;;7.40;3.38;;;17.80;99.90;;;;;;5017538;28;20096;-56
2023/08/21 04:52:19;;;;;;;8.70;3.22;;;17.80;99.90;;;;;;5003345;28;20494;-56
2023/08/21 04:54:46;;;;;;;8.80;3.17;;;17.70;99.90;;;;;;5003782;28;20093;-56
2023/08/21 04:57:11;;;;;;;10.55;3.75;;;17.60;99.90;;;;;;5008397;28;20025;-56
2023/08/21 04:59:38;;;;;;;7.38;3.03;;;17.60;99.90;;;;;;5022244;28;20038;-56
2023/08/21 05:02:04;;;;;;;10.70;3.15;;;17.60;99.90;;;;;;4999009;28;20362;-56
2023/08/21 05:04:29;;;;;;;7.50;3.13;;;17.50;99.90;;;;;;5009333;28;20034;-57
2023/08/21 05:06:55;;;;;;;9.70;3.33;;;17.60;99.90;;;;;;5009324;28;20038;-57
2023/08/21 05:09:20;;;;;;;10.80;3.85;;;17.70;99.90;;;;;;5007242;28;20064;-57
2023/08/21 05:11:46;;;;;;;10.32;3.50;;;17.90;99.90;;;;;;5010510;28;20037;-56
2023/08/21 05:14:12;;;;;;;9.90;3.50;;;18.10;99.90;;;;;;5018478;28;20308;-57
2023/08/21 05:16:37;;;;;;;7.70;3.50;;;18.10;99.90;;;;;;5010189;28;20096;-57
2023/08/21 05:19:03;;;;;;;14.07;3.70;;;18.30;99.90;;;;;;5002425;28;20057;-57
2023/08/21 05:21:29;;;;;;;11.63;3.25;;;18.20;99.90;;;;;;5004109;28;20057;-57
2023/08/21 05:23:54;;;;;;;14.25;3.97;;;18.30;99.90;;;;;;5006392;28;20064;-57
2023/08/21 05:26:20;;;;;;;15.48;3.97;;;18.30;99.90;;;;;;5001655;28;20046;-56
2023/08/21 05:28:46;;;;;;;12.32;3.80;;;18.40;99.90;;;;;;5001212;28;20088;-56
2023/08/21 05:31:11;;;;;;;14.30;3.97;;;18.40;99.90;;;;;;5023176;28;20588;-58
2023/08/21 05:33:37;;;;;;;13.38;3.95;;;18.40;99.90;;;;;;5015737;28;20033;-54
2023/08/21 05:36:03;;;;;;;15.90;3.70;;;18.40;99.90;;;;;;4995933;28;20045;-55
2023/08/21 05:38:28;;;;;;;15.43;4.03;;;18.50;99.90;;;;;;5006149;28;20121;-56
2023/08/21 05:40:54;;;;;;;16.77;4.25;;;18.50;99.90;;;;;;5001077;28;20046;-58
2023/08/21 05:43:20;;;;;;;15.52;4.68;;;18.70;99.90;;;;;;5005047;28;20120;-57
2023/08/21 05:45:45;;;;;;;12.82;4.28;;;18.80;99.90;;;;;;5003090;28;20061;-57
2023/08/21 05:48:11;;;;;;;13.20;4.40;;;18.80;99.90;;;;;;5016572;28;20425;-57
2023/08/21 05:50:36;;;;;;;21.88;4.68;;;18.80;99.90;;;;;;5005403;28;20042;-56
2023/08/21 05:53:06;;;;;;;12.40;4.07;;;18.80;99.90;;;;;;5017006;28;20129;-57
2023/08/21 05:55:32;;;;;;;18.27;4.47;;;18.90;99.90;;;;;;5018691;28;20037;-57
2023/08/21 05:57:57;;;;;;;19.13;4.60;;;19.00;99.90;;;;;;5021301;28;20069;-57
2023/08/21 06:00:23;;;;;;;13.32;3.83;;;19.10;99.90;;;;;;5021860;28;20095;-57
2023/08/21 06:02:48;;;;;;;17.30;4.30;;;19.20;99.90;;;;;;5024928;28;20037;-56
2023/08/21 06:05:14;;;;;;;15.98;3.92;;;19.30;99.90;;;;;;5024804;28;20647;-57
2023/08/21 06:07:40;;;;;;;12.43;3.72;;;19.40;99.90;;;;;;5030415;28;20041;-56
2023/08/21 06:10:12;;;;;;;13.63;3.92;;;19.50;99.90;;;;;;5024771;28;20354;-57
2023/08/21 06:12:41;;;;;;;19.65;4.07;;;19.70;99.90;;;;;;5021470;28;20568;-55
2023/08/21 06:15:09;;;;;;;17.23;4.80;;;19.60;99.90;;;;;;5014496;28;20445;-59
2023/08/21 06:17:36;;;;;;;15.13;3.50;;;19.70;99.90;;;;;;5025126;28;20064;-56
2023/08/21 06:20:05;;;;;;;43.70;17.60;;;19.70;99.90;;;;;;5021850;28;20707;-56
2023/08/21 06:22:34;;;;;;;12.85;3.90;;;19.70;99.90;;;;;;5019784;28;20042;-56
2023/08/21 06:24:59;;;;;;;11.40;3.85;;;19.80;99.90;;;;;;5014369;28;20100;-56
2023/08/21 06:27:25;;;;;;;13.50;4.05;;;19.90;99.90;;;;;;5003771;28;20038;-57
2023/08/21 06:29:50;;;;;;;14.13;3.88;;;19.90;99.90;;;;;;4999905;28;20042;-57
2023/08/21 06:32:16;;;;;;;19.67;4.20;;;19.90;99.90;;;;;;5009175;28;20470;-57
2023/08/21 06:34:41;;;;;;;14.60;3.90;;;20.00;99.90;;;;;;5011948;28;20353;-57
2023/08/21 06:37:07;;;;;;;14.70;3.55;;;20.00;99.90;;;;;;4996110;28;20037;-58
2023/08/21 06:39:34;;;;;;;12.50;3.97;;;20.10;99.90;;;;;;5012356;28;20093;-56
2023/08/21 06:42:00;;;;;;;17.23;4.00;;;20.20;99.90;;;;;;5019921;28;20432;-57
2023/08/21 06:44:26;;;;;;;12.18;3.78;;;20.40;99.90;;;;;;5022397;28;20045;-58
2023/08/21 06:46:51;;;;;;;18.23;3.85;;;20.50;99.90;;;;;;5016694;28;20578;-57
2023/08/21 06:49:17;;;;;;;19.25;4.15;;;20.70;99.90;;;;;;4997063;28;20124;-57
2023/08/21 06:51:43;;;;;;;15.57;3.80;;;20.70;99.90;;;;;;5004126;28;20092;-55
2023/08/21 06:54:09;;;;;;;16.88;4.70;;;20.70;99.90;;;;;;4998175;28;20513;-58
2023/08/21 06:56:34;;;;;;;15.73;3.83;;;20.70;99.90;;;;;;5001588;28;20038;-57
2023/08/21 06:59:00;;;;;;;15.38;4.03;;;20.80;99.90;;;;;;5016199;28;20544;-57
2023/08/21 07:01:25;;;;;;;17.20;4.15;;;20.90;99.90;;;;;;5016378;28;20037;-56
2023/08/21 07:03:51;;;;;;;13.95;4.50;;;20.90;99.90;;;;;;5025621;28;20049;-55
2023/08/21 07:06:17;;;;;;;18.17;4.30;;;20.90;99.90;;;;;;5022392;28;20033;-57
2023/08/21 07:08:42;;;;;;;16.05;4.00;;;21.00;99.90;;;;;;5023316;28;20557;-56
2023/08/21 07:11:09;;;;;;;15.05;4.40;;;20.90;99.90;;;;;;5023480;28;20084;-56
2023/08/21 07:13:36;;;;;;;20.75;4.35;;;21.00;99.90;;;;;;5024227;28;20041;-56
2023/08/21 07:16:02;;;;;;;16.33;4.10;;;21.00;99.90;;;;;;5023861;28;20092;-56
2023/08/21 07:18:30;;;;;;;14.60;3.80;;;21.10;99.90;;;;;;5016167;28;20247;-56
2023/08/21 07:20:55;;;;;;;15.80;4.20;;;21.20;99.90;;;;;;4992970;28;21337;-57
2023/08/21 07:23:21;;;;;;;14.23;3.92;;;21.30;99.90;;;;;;5012629;28;20041;-55
2023/08/21 07:25:47;;;;;;;17.17;4.07;;;21.40;99.90;;;;;;5008056;28;20041;-57
2023/08/21 07:28:12;;;;;;;19.33;4.40;;;21.40;99.90;;;;;;5007865;28;20589;-57
2023/08/21 07:30:38;;;;;;;13.48;4.32;;;21.50;99.90;;;;;;5005152;28;20030;-56
2023/08/21 07:33:05;;;;;;;12.65;4.22;;;21.50;99.90;;;;;;5000849;28;20041;-55
2023/08/21 07:35:32;;;;;;;15.90;4.18;;;21.50;99.90;;;;;;5002450;28;20037;-56
2023/08/21 07:37:57;;;;;;;18.80;4.50;;;21.60;99.90;;;;;;5003035;28;20425;-56
2023/08/21 07:40:23;;;;;;;14.48;4.13;;;21.60;99.90;;;;;;5002587;28;20037;-57
2023/08/21 07:42:49;;;;;;;14.02;4.00;;;21.50;99.90;;;;;;5004090;28;20429;-56
2023/08/21 07:45:14;;;;;;;16.45;4.07;;;21.40;99.90;;;;;;5010831;28;20045;-56
2023/08/21 07:47:40;;;;;;;16.83;4.18;;;21.50;99.90;;;;;;5008070;28;20045;-57
2023/08/21 07:50:06;;;;;;;16.77;3.80;;;21.60;99.90;;;;;;5002796;28;20117;-57
2023/08/21 07:52:32;;;;;;;12.77;3.38;;;21.70;99.90;;;;;;5002367;28;20033;-57
2023/08/21 07:55:00;;;;;;;20.80;3.50;;;21.70;99.90;;;;;;5003347;28;20124;-57
2023/08/21 07:57:26;;;;;;;15.00;3.65;;;21.70;99.90;;;;;;5003535;28;20434;-56
2023/08/21 07:59:52;;;;;;;11.73;3.30;;;21.80;99.90;;;;;;5004150;28;20117;-56
2023/08/21 08:02:17;;;;;;;12.45;3.17;;;21.90;99.90;;;;;;5003950;28;20181;-57
2023/08/21 08:04:44;;;;;;;9.73;3.15;;;21.90;99.90;;;;;;5008035;28;20038;-57
2023/08/21 08:07:09;;;;;;;12.35;3.22;;;21.90;99.90;;;;;;5006294;28;20478;-57
2023/08/21 08:09:36;;;;;;;12.10;3.80;;;21.90;99.90;;;;;;5006901;28;20049;-57
2023/08/21 08:12:01;;;;;;;11.88;3.30;;;22.00;99.90;;;;;;5004073;28;21064;-57
2023/08/21 08:14:27;;;;;;;13.75;3.50;;;22.10;99.90;;;;;;5014608;28;20038;-56
2023/08/21 08:16:52;;;;;;;15.93;4.00;;;22.10;99.90;;;;;;5007143;28;20101;-56
2023/08/21 08:19:18;;;;;;;13.52;3.78;;;22.10;99.90;;;;;;5015249;28;20045;-55
2023/08/21 08:21:44;;;;;;;13.10;3.85;;;22.10;99.90;;;;;;5026565;28;20038;-56
2023/08/21 08:24:09;;;;;;;15.13;3.50;;;22.20;99.90;;;;;;5023074;28;20046;-57
2023/08/21 08:26:35;;;;;;;17.33;3.53;;;22.30;99.90;;;;;;5008464;28;20033;-57
2023/08/21 08:29:01;;;;;;;45.33;20.77;;;22.40;99.90;;;;;;4998636;28;20097;-57
2023/08/21 08:31:27;;;;;;;17.52;3.58;;;22.50;99.90;;;;;;5019595;28;20030;-55
2023/08/21 08:33:53;;;;;;;14.27;3.15;;;22.40;99.90;;;;;;5004021;28;20022;-57
2023/08/21 08:36:20;;;;;;;16.58;3.95;;;22.50;99.90;;;;;;5011156;28;20028;-57
2023/08/21 08:38:45;;;;;;;13.93;3.45;;;22.60;99.90;;;;;;5009449;28;20041;-55
2023/08/21 08:41:18;;;;;;;16.27;3.30;;;22.60;99.90;;;;;;5002394;28;20459;-57
2023/08/21 08:43:44;;;;;;;15.57;3.35;;;22.60;99.90;;;;;;5012477;28;20034;-55
2023/08/21 08:46:10;;;;;;;14.10;2.83;;;22.60;99.90;;;;;;5025159;28;20068;-58
2023/08/21 08:48:37;;;;;;;14.23;3.08;;;22.70;99.90;;;;;;5026377;28;20041;-57
2023/08/21 08:51:06;;;;;;;12.82;3.03;;;22.90;99.90;;;;;;5025652;28;20040;-56
2023/08/21 08:53:32;;;;;;;10.75;2.90;;;23.00;99.90;;;;;;5021751;28;20041;-57
2023/08/21 08:55:58;;;;;;;15.57;3.50;;;23.00;99.90;;;;;;5009895;28;20123;-57
2023/08/21 08:58:24;;;;;;;16.23;3.92;;;23.00;99.90;;;;;;5004647;28;20069;-57
2023/08/21 09:00:50;;;;;;;14.15;3.25;;;23.00;99.90;;;;;;5005732;28;20038;-58
2023/08/21 09:03:16;;;;;;;13.95;3.03;;;23.20;99.90;;;;;;5015966;28;20164;-57
2023/08/21 09:05:42;;;;;;;16.73;3.35;;;23.20;99.90;;;;;;5006406;28;20041;-57
2023/08/21 09:08:14;;;;;;;11.55;3.35;;;23.30;99.90;;;;;;5013246;28;20068;-57
2023/08/21 09:10:41;;;;;;;16.67;3.10;;;23.50;99.90;;;;;;5002917;28;20034;-56
2023/08/21 09:13:25;;;;;;;12.85;2.95;;;23.60;99.90;;;;;;5003719;28;20037;-58
2023/08/21 09:15:57;;;;;;;11.63;2.80;;;23.60;99.90;;;;;;5003993;28;20831;-58
2023/08/21 09:18:23;;;;;;;14.52;3.22;;;23.70;99.90;;;;;;5013205;28;20060;-55
2023/08/21 09:20:48;;;;;;;10.20;2.60;;;23.80;99.90;;;;;;5013793;28;20026;-57
2023/08/21 09:23:16;;;;;;;8.73;3.00;;;23.60;99.90;;;;;;5004962;28;20034;-55
2023/08/21 09:25:44;;;;;;;14.43;3.25;;;23.80;99.90;;;;;;5004833;28;20116;-56
2023/08/21 09:28:10;;;;;;;11.48;2.78;;;23.80;99.90;;;;;;5004418;28;20497;-56
2023/08/21 09:30:46;;;;;;;13.57;2.70;;;23.90;99.90;;;;;;5005564;28;20076;-57
2023/08/21 09:33:12;;;;;;;14.32;2.90;;;23.90;99.90;;;;;;5005329;28;20038;-56
2023/08/21 09:35:39;;;;;;;10.10;2.90;;;24.00;99.90;;;;;;5005766;28;20038;-56
2023/08/21 09:38:06;;;;;;;13.98;2.63;;;23.90;99.90;;;;;;5004906;28;20124;-57
2023/08/21 09:40:32;;;;;;;11.32;3.05;;;23.90;99.90;;;;;;5004909;28;20034;-57
2023/08/21 09:42:59;;;;;;;16.45;3.17;;;23.90;99.90;;;;;;5005434;28;20088;-56
2023/08/21 09:45:25;;;;;;;14.20;2.65;;;24.10;99.90;;;;;;5003392;28;20052;-56
2023/08/21 09:47:52;;;;;;;12.68;2.92;;;24.00;99.90;;;;;;5005788;28;20549;-57
2023/08/21 09:50:19;;;;;;;10.45;2.58;;;24.10;99.90;;;;;;5004524;28;20534;-56
2023/08/21 09:52:45;;;;;;;26.10;3.55;;;24.20;99.90;;;;;;5004957;28;20080;-56
2023/08/21 09:55:13;;;;;;;14.25;3.13;;;24.20;99.90;;;;;;5003057;28;20597;-57
2023/08/21 09:57:40;;;;;;;16.70;2.90;;;24.10;99.90;;;;;;5005526;28;20092;-57
2023/08/21 10:00:20;;;;;;;13.73;3.30;;;24.20;99.90;;;;;;5004166;28;20041;-57
2023/08/21 10:02:50;;;;;;;13.73;3.17;;;24.20;99.90;;;;;;5003161;28;20034;-56
2023/08/21 10:05:17;;;;;;;14.15;2.95;;;24.10;99.90;;;;;;5002697;28;20033;-56
2023/08/21 10:07:47;;;;;;;13.05;3.00;;;24.10;99.90;;;;;;5005571;28;20382;-55
2023/08/21 10:10:13;;;;;;;15.52;3.05;;;24.10;99.90;;;;;;5004231;28;20057;-56
2023/08/21 10:12:38;;;;;;;12.20;3.40;;;24.40;99.90;;;;;;5004705;28;20105;-58
2023/08/21 10:15:06;;;;;;;11.50;2.80;;;24.40;99.90;;;;;;5002987;28;20041;-56
2023/08/21 10:17:32;;;;;;;11.07;2.80;;;24.30;99.90;;;;;;5003537;28;20084;-56
2023/08/21 10:20:03;;;;;;;11.30;2.67;;;24.30;99.90;;;;;;5012365;28;20045;-58
2023/08/21 10:22:42;;;;;;;13.23;3.20;;;24.50;99.90;;;;;;5010611;28;20179;-57
2023/08/21 10:25:22;;;;;;;15.77;2.90;;;24.60;99.90;;;;;;5002211;28;20039;-57
2023/08/21 10:27:53;;;;;;;9.73;2.60;;;24.50;99.90;;;;;;5000727;28;20668;-57
2023/08/21 10:30:27;;;;;;;10.68;2.45;;;24.60;99.90;;;;;;5003316;28;20026;-56
2023/08/21 10:32:55;;;;;;;9.88;2.50;;;24.50;99.90;;;;;;5004170;28;20040;-57
2023/08/21 10:35:31;;;;;;;20.65;3.17;;;24.50;99.90;;;;;;5011758;28;20075;-58
2023/08/21 10:38:13;;;;;;;10.73;3.08;;;24.60;99.90;;;;;;5003060;28;20116;-55
2023/08/21 10:40:40;;;;;;;10.45;2.20;;;24.50;99.90;;;;;;5004677;28;20129;-57
2023/08/21 10:43:43;;;;;;;10.70;2.72;;;24.50;99.90;;;;;;5004090;28;20057;-55
2023/08/21 10:46:09;;;;;;;9.68;2.38;;;24.50;99.90;;;;;;5002139;28;20065;-55
2023/08/21 10:48:39;;;;;;;11.93;2.13;;;24.60;99.90;;;;;;5004502;28;20544;-59
2023/08/21 10:51:07;;;;;;;9.32;2.00;;;24.70;99.90;;;;;;5002241;28;20536;-56
2023/08/21 10:53:33;;;;;;;7.80;1.95;;;24.50;99.90;;;;;;4995214;28;20494;-57
2023/08/21 10:56:03;;;;;;;13.00;3.90;;;24.60;99.90;;;;;;5004564;28;20536;-56
2023/08/21 10:58:38;;;;;;;11.50;2.58;;;24.60;99.90;;;;;;5007902;28;20105;-56
2023/08/21 11:01:03;;;;;;;9.88;2.55;;;24.50;99.90;;;;;;4997188;28;20048;-57
2023/08/21 11:03:29;;;;;;;10.35;2.55;;;24.50;99.90;;;;;;4998376;28;20041;-57
2023/08/21 11:06:05;;;;;;;10.70;2.22;;;24.50;99.90;;;;;;4997480;28;20139;-57
2023/08/21 11:08:34;;;;;;;6.55;1.80;;;24.60;99.90;;;;;;5003201;28;20042;-57
2023/08/21 11:11:02;;;;;;;9.30;2.35;;;24.70;99.90;;;;;;5001960;28;20113;-57
2023/08/21 11:13:27;;;;;;;13.57;3.03;;;24.80;99.90;;;;;;5015693;28;20382;-57
2023/08/21 11:16:04;;;;;;;8.88;2.40;;;24.80;99.90;;;;;;5020783;28;20049;-58
2023/08/21 11:18:35;;;;;;;12.90;3.22;;;25.10;99.90;;;;;;5019953;28;20131;-57
2023/08/21 11:21:11;;;;;;;8.98;3.00;;;24.90;99.90;;;;;;5014733;28;20101;-58
2023/08/21 11:23:39;;;;;;;9.40;2.60;;;24.90;99.90;;;;;;5012262;28;20037;-57
2023/08/21 11:26:05;;;;;;;13.90;2.88;;;25.10;99.90;;;;;;5022102;28;20047;-61
2023/08/21 11:28:32;;;;;;;10.50;2.80;;;24.90;99.90;;;;;;5021964;28;20149;-57
2023/08/21 11:30:58;;;;;;;12.20;3.30;;;24.80;99.90;;;;;;5011237;28;20340;-57
2023/08/21 11:33:26;;;;;;;12.02;3.25;;;24.80;99.90;;;;;;4995254;28;20038;-57
2023/08/21 11:35:54;;;;;;;10.75;2.70;;;24.80;99.90;;;;;;5003108;28;20060;-57
2023/08/21 11:38:21;;;;;;;8.27;2.88;;;24.80;99.90;;;;;;5003396;28;20033;-56
2023/08/21 11:41:05;;;;;;;10.90;2.83;;;24.90;99.90;;;;;;5009267;28;20033;-56
2023/08/21 11:43:39;;;;;;;14.85;2.60;;;25.00;99.90;;;;;;5024503;28;20631;-55
2023/08/21 11:46:05;;;;;;;;;;;25.10;99.90;;;;;;5018051;28;20041;-60
2023/08/21 11:48:31;;;;;;;11.10;2.60;;;25.00;99.90;;;;;;5005177;28;20428;-56
2023/08/21 11:50:57;;;;;;;11.65;2.75;;;25.10;99.90;;;;;;5008904;28;20044;-57
2023/08/21 11:53:37;;;;;;;10.35;2.70;;;25.10;99.90;;;;;;5012847;28;20049;-56
2023/08/21 11:56:08;;;;;;;12.77;2.60;;;25.10;99.90;;;;;;4997107;28;20088;-57
2023/08/21 11:58:38;;;;;;;11.55;2.40;;;25.20;99.90;;;;;;5006118;28;20097;-56
2023/08/21 12:01:04;;;;;;;11.27;2.42;;;25.20;99.90;;;;;;5002776;28;20034;-56
2023/08/21 12:03:30;;;;;;;8.40;2.47;;;25.30;99.90;;;;;;5001201;28;20046;-57
2023/08/21 12:05:56;;;;;;;12.95;2.42;;;25.20;99.90;;;;;;5006184;28;20030;-55
2023/08/21 12:08:22;;;;;;;8.23;2.60;;;25.20;99.90;;;;;;5007944;28;20111;-57
2023/08/21 12:10:52;;;;;;;8.52;2.63;;;25.10;99.90;;;;;;5010832;28;20037;-57
2023/08/21 12:13:18;;;;;;;12.75;3.05;;;25.10;99.90;;;;;;5009409;28;20593;-57
2023/08/21 12:15:43;;;;;;;11.25;2.55;;;25.10;99.90;;;;;;5011366;28;20391;-56
2023/08/21 12:18:09;;;;;;;12.50;2.80;;;25.30;99.90;;;;;;5010440;28;20040;-57
2023/08/21 12:20:34;;;;;;;12.60;3.05;;;25.30;99.90;;;;;;5019686;28;20061;-56
2023/08/21 12:23:00;;;;;;;11.98;3.13;;;25.10;99.90;;;;;;5025110;28;20407;-56
2023/08/21 12:25:26;;;;;;;14.07;3.40;;;25.10;99.90;;;;;;4999455;28;20057;-57
2023/08/21 12:27:51;;;;;;;11.88;2.80;;;25.10;99.90;;;;;;5007828;28;20069;-57
2023/08/21 12:30:17;;;;;;;14.10;3.42;;;25.20;99.90;;;;;;5009670;28;20397;-56
2023/08/21 12:32:42;;;;;;;8.30;2.60;;;25.30;99.90;;;;;;5011603;28;20461;-56
2023/08/21 12:35:11;;;;;;;14.77;3.67;;;25.30;99.90;;;;;;5010640;28;20483;-55
2023/08/21 12:37:37;;;;;;;11.43;3.20;;;25.20;99.90;;;;;;5015369;28;20448;-56
2023/08/21 12:40:03;;;;;;;8.00;3.45;;;25.20;99.90;;;;;;5008638;28;20042;-55